createdAt,value
2022-08-27T00:01:23.051Z,62.33
2022-08-27T00:04:11.576Z,62.26
2022-08-27T00:07:02.240Z,62.43
2022-08-27T00:09:50.712Z,62.43
2022-08-27T00:12:39.534Z,62.54
2022-08-27T00:15:28.574Z,61.90
2022-08-27T00:18:19.854Z,61.78
2022-08-27T00:21:11.165Z,61.65
2022-08-27T00:24:01.314Z,62.07
2022-08-27T00:26:50.622Z,62.02
2022-08-27T00:29:39.074Z,61.79
2022-08-27T00:32:27.666Z,61.50
2022-08-27T00:35:17.145Z,61.39
2022-08-27T00:38:06.205Z,61.22
2022-08-27T00:40:56.369Z,61.29
2022-08-27T00:43:48.403Z,61.39
2022-08-27T00:46:39.354Z,61.25
2022-08-27T00:49:33.732Z,61.45
2022-08-27T00:52:27.309Z,61.32
2022-08-27T00:55:19.160Z,61.16
2022-08-27T00:58:14.186Z,61.28
2022-08-27T01:01:03.255Z,61.47
2022-08-27T01:03:57.047Z,61.31
2022-08-27T01:06:45.378Z,61.25
2022-08-27T01:09:33.988Z,61.24
2022-08-27T01:12:22.838Z,61.33
2022-08-27T01:15:20.053Z,61.42
2022-08-27T01:18:10.037Z,61.54
2022-08-27T01:21:04.221Z,61.49
2022-08-27T01:23:59.500Z,61.33
2022-08-27T01:26:49.312Z,61.65
2022-08-27T01:29:38.350Z,62.03
2022-08-27T01:32:29.042Z,61.67
2022-08-27T01:35:19.111Z,61.81
2022-08-27T01:38:07.484Z,61.95
2022-08-27T01:41:07.132Z,62.27
2022-08-27T01:43:56.852Z,62.09
2022-08-27T01:46:46.341Z,62.39
2022-08-27T01:49:34.736Z,62.50
2022-08-27T01:52:27.372Z,62.89
2022-08-27T01:55:18.556Z,63.54
2022-08-27T01:58:07.139Z,63.26
2022-08-27T02:01:00.506Z,64.47
2022-08-27T02:03:49.019Z,64.73
2022-08-27T02:06:37.384Z,64.87
2022-08-27T02:09:26.974Z,65.28
2022-08-27T02:12:15.446Z,65.43
2022-08-27T02:15:04.658Z,65.35
2022-08-27T02:17:54.472Z,65.35
2022-08-27T02:20:44.308Z,66.03
2022-08-27T02:23:32.711Z,66.51
2022-08-27T02:26:21.087Z,66.56
2022-08-27T02:29:10.255Z,67.63
2022-08-27T02:31:58.601Z,68.01
2022-08-27T02:34:48.423Z,68.42
2022-08-27T02:37:37.615Z,68.83
2022-08-27T02:40:26.810Z,69.20
2022-08-27T02:43:15.729Z,69.07
2022-08-27T02:46:04.511Z,68.54
2022-08-27T02:48:52.862Z,67.88
2022-08-27T02:51:43.433Z,67.35
2022-08-27T02:54:32.866Z,67.68
2022-08-27T02:57:21.493Z,67.08
2022-08-27T03:00:13.747Z,67.59
2022-08-27T03:03:03.831Z,67.73
2022-08-27T03:05:53.014Z,67.44
2022-08-27T03:08:52.919Z,67.68
2022-08-27T03:11:42.145Z,68.02
2022-08-27T03:14:31.432Z,68.23
2022-08-27T03:17:48.673Z,68.18
2022-08-27T03:20:40.915Z,68.42
2022-08-27T03:23:33.150Z,69.88
2022-08-27T03:26:22.976Z,69.29
2022-08-27T03:29:11.355Z,70.15
2022-08-27T03:31:59.827Z,70.46
2022-08-27T03:34:48.241Z,70.67
2022-08-27T03:37:36.859Z,70.65
2022-08-27T03:40:25.215Z,70.80
2022-08-27T03:43:16.324Z,70.78
2022-08-27T03:46:05.193Z,70.83
2022-08-27T03:48:54.594Z,70.99
2022-08-27T03:51:46.486Z,70.82
2022-08-27T03:54:36.187Z,71.17
2022-08-27T03:57:24.575Z,71.47
2022-08-27T04:00:15.148Z,71.54
2022-08-27T04:03:06.093Z,71.41
2022-08-27T04:05:55.417Z,71.85
2022-08-27T04:08:43.788Z,71.84
2022-08-27T04:11:32.181Z,71.83
2022-08-27T04:14:26.960Z,71.99
2022-08-27T04:17:17.302Z,71.89
2022-08-27T04:20:31.607Z,71.27
2022-08-27T04:23:16.579Z,71.45
2022-08-27T04:26:06.401Z,71.20
2022-08-27T04:28:55.359Z,71.01
2022-08-27T04:31:43.759Z,70.64
2022-08-27T04:34:33.668Z,70.08
2022-08-27T04:37:22.088Z,69.78
2022-08-27T04:40:12.078Z,69.73
2022-08-27T04:43:00.494Z,69.61
2022-08-27T04:45:50.446Z,69.03
2022-08-27T04:48:39.130Z,69.35
2022-08-27T04:51:30.339Z,69.25
2022-08-27T04:54:19.388Z,69.22
2022-08-27T04:57:16.966Z,69.33
2022-08-27T05:00:07.209Z,69.50
2022-08-27T05:02:55.575Z,69.40
2022-08-27T05:05:44.037Z,69.41
2022-08-27T05:08:34.784Z,68.85
2022-08-27T05:11:26.674Z,68.30
2022-08-27T05:14:16.798Z,68.11
2022-08-27T05:17:05.214Z,68.16
2022-08-27T05:19:53.511Z,68.05
2022-08-27T05:22:41.878Z,67.79
2022-08-27T05:25:31.525Z,67.59
2022-08-27T05:28:22.153Z,67.04
2022-08-27T05:31:17.337Z,66.53
2022-08-27T05:34:10.088Z,66.64
2022-08-27T05:36:59.023Z,66.17
2022-08-27T05:39:47.388Z,65.85
2022-08-27T05:42:37.047Z,65.75
2022-08-27T05:45:25.351Z,65.41
2022-08-27T05:48:14.725Z,66.29
2022-08-27T05:51:09.811Z,66.59
2022-08-27T05:54:00.183Z,66.77
2022-08-27T05:56:50.378Z,66.86
2022-08-27T05:59:57.681Z,66.55
2022-08-27T06:02:46.896Z,66.81
2022-08-27T06:05:35.330Z,66.59
2022-08-27T06:08:23.796Z,66.62
2022-08-27T06:11:12.239Z,66.57
2022-08-27T06:14:00.735Z,66.37
2022-08-27T06:16:50.585Z,66.41
2022-08-27T06:19:39.018Z,66.43
2022-08-27T06:22:27.319Z,65.75
2022-08-27T06:25:15.593Z,66.00
2022-08-27T06:28:04.365Z,65.55
2022-08-27T06:30:55.903Z,65.84
2022-08-27T06:33:47.957Z,65.60
2022-08-27T06:36:38.332Z,66.17
2022-08-27T06:39:26.958Z,65.55
2022-08-27T06:42:16.061Z,64.65
2022-08-27T06:45:06.242Z,64.52
2022-08-27T06:47:55.980Z,64.73
2022-08-27T06:50:45.965Z,65.45
2022-08-27T06:53:34.337Z,65.58
2022-08-27T06:56:22.776Z,65.07
2022-08-27T06:59:13.077Z,63.98
2022-08-27T07:02:01.440Z,63.36
2022-08-27T07:04:50.613Z,63.56
2022-08-27T07:07:46.710Z,63.48
2022-08-27T07:10:37.530Z,62.50
2022-08-27T07:13:25.868Z,62.59
2022-08-27T07:16:16.329Z,62.58
2022-08-27T07:19:06.751Z,62.65
2022-08-27T07:21:55.123Z,61.90
2022-08-27T07:24:44.897Z,61.08
2022-08-27T07:27:33.307Z,61.09
2022-08-27T07:30:22.003Z,60.25
2022-08-27T07:33:10.368Z,60.48
2022-08-27T07:35:58.899Z,59.90
2022-08-27T07:38:52.786Z,60.19
2022-08-27T07:42:15.788Z,59.62
2022-08-27T07:45:04.145Z,59.36
2022-08-27T07:47:54.790Z,59.13
2022-08-27T07:50:43.793Z,59.15
2022-08-27T07:53:33.129Z,59.00
2022-08-27T07:56:22.442Z,58.81
2022-08-27T07:59:12.489Z,58.39
2022-08-27T08:02:00.895Z,58.64
2022-08-27T08:04:49.302Z,56.77
2022-08-27T08:07:38.591Z,56.65
2022-08-27T08:10:27.524Z,57.48
2022-08-27T08:13:16.603Z,56.73
2022-08-27T08:16:06.807Z,56.53
2022-08-27T08:18:55.578Z,56.45
2022-08-27T08:21:44.021Z,55.20
2022-08-27T08:24:32.374Z,54.68
2022-08-27T08:27:21.311Z,55.66
2022-08-27T08:30:11.120Z,54.93
2022-08-27T08:33:00.799Z,54.89
2022-08-27T08:35:50.096Z,56.31
2022-08-27T08:38:39.348Z,56.50
2022-08-27T08:41:40.624Z,55.19
2022-08-27T08:44:34.189Z,54.82
2022-08-27T08:47:26.381Z,55.02
2022-08-27T08:50:22.209Z,54.79
2022-08-27T08:53:20.099Z,54.77
2022-08-27T08:56:12.169Z,54.68
2022-08-27T08:59:04.684Z,55.71
2022-08-27T09:01:53.068Z,55.71
2022-08-27T09:04:42.418Z,57.17
2022-08-27T09:07:37.050Z,56.18
2022-08-27T09:10:34.618Z,57.47
2022-08-27T09:13:25.950Z,55.25
2022-08-27T09:16:14.262Z,54.25
2022-08-27T09:19:05.982Z,53.45
2022-08-27T09:22:01.252Z,53.95
2022-08-27T09:25:06.557Z,53.44
2022-08-27T09:27:58.609Z,53.89
2022-08-27T09:30:46.957Z,53.80
2022-08-27T09:33:44.335Z,54.12
2022-08-27T09:36:54.704Z,54.67
2022-08-27T09:39:49.951Z,53.93
2022-08-27T09:42:44.498Z,54.93
2022-08-27T09:45:37.307Z,55.25
2022-08-27T09:48:28.734Z,55.36
2022-08-27T09:51:22.016Z,52.30
2022-08-27T09:54:13.110Z,53.15
2022-08-27T09:57:01.761Z,54.73
2022-08-27T09:59:55.545Z,52.88
2022-08-27T10:02:53.021Z,53.35
2022-08-27T10:05:51.922Z,53.65
2022-08-27T10:08:44.938Z,55.81
2022-08-27T10:11:38.936Z,56.99
2022-08-27T10:14:32.536Z,53.39
2022-08-27T10:17:29.235Z,53.03
2022-08-27T10:20:30.102Z,51.64
2022-08-27T10:23:29.503Z,50.20
2022-08-27T10:26:24.585Z,49.30
2022-08-27T10:29:22.661Z,48.48
2022-08-27T10:32:25.732Z,48.76
2022-08-27T10:35:20.857Z,49.78
2022-08-27T10:38:15.736Z,48.71
2022-08-27T10:41:13.833Z,47.12
2022-08-27T10:44:26.283Z,46.92
2022-08-27T10:47:30.805Z,47.89
2022-08-27T10:50:28.592Z,47.36
2022-08-27T10:53:27.121Z,46.11
2022-08-27T10:56:22.939Z,45.30
2022-08-27T10:59:25.804Z,46.70
2022-08-27T11:02:24.274Z,44.69
2022-08-27T11:05:18.707Z,43.82
2022-08-27T11:08:14.543Z,44.56
2022-08-27T11:11:34.986Z,44.33
2022-08-27T11:14:25.420Z,44.66
2022-08-27T11:17:19.963Z,45.12
2022-08-27T11:20:13.288Z,44.03
2022-08-27T11:23:06.062Z,43.46
2022-08-27T11:25:59.101Z,42.76
2022-08-27T11:28:55.684Z,43.01
2022-08-27T11:31:52.139Z,42.19
2022-08-27T11:34:47.548Z,41.59
2022-08-27T11:37:53.071Z,42.11
2022-08-27T11:41:00.609Z,41.43
2022-08-27T11:43:49.252Z,41.16
2022-08-27T11:46:45.170Z,41.64
2022-08-27T11:49:42.355Z,40.35
2022-08-27T11:52:36.478Z,40.10
2022-08-27T11:55:29.293Z,39.78
2022-08-27T11:58:29.184Z,41.38
2022-08-27T12:01:26.982Z,43.22
2022-08-27T12:04:24.893Z,43.53
2022-08-27T12:07:30.833Z,41.25
2022-08-27T12:10:36.578Z,41.45
2022-08-27T12:13:35.176Z,42.17
2022-08-27T12:16:32.070Z,41.59
2022-08-27T12:19:33.730Z,41.57
2022-08-27T12:22:58.705Z,42.62
2022-08-27T12:25:57.862Z,40.45
2022-08-27T12:28:47.558Z,41.07
2022-08-27T12:31:38.262Z,39.23
2022-08-27T12:34:28.982Z,37.67
2022-08-27T12:37:23.514Z,39.67
2022-08-27T12:40:22.959Z,37.39
2022-08-27T12:43:14.409Z,36.80
2022-08-27T12:46:08.273Z,35.53
2022-08-27T12:48:59.364Z,34.99
2022-08-27T12:52:14.809Z,36.27
2022-08-27T12:55:17.460Z,35.62
2022-08-27T12:58:15.790Z,36.81
2022-08-27T13:01:22.441Z,35.45
2022-08-27T13:04:21.677Z,35.81
2022-08-27T13:07:10.833Z,34.64
2022-08-27T13:10:10.758Z,34.26
2022-08-27T13:13:06.376Z,34.23
2022-08-27T13:15:58.707Z,33.99
2022-08-27T13:18:50.598Z,34.56
2022-08-27T13:21:38.974Z,34.24
2022-08-27T13:24:36.023Z,32.82
2022-08-27T13:27:26.490Z,33.08
2022-08-27T13:30:26.876Z,34.04
2022-08-27T13:33:27.982Z,33.77
2022-08-27T13:36:27.486Z,33.98
2022-08-27T13:39:19.401Z,32.93
2022-08-27T13:42:10.297Z,33.23
2022-08-27T13:45:03.769Z,34.20
2022-08-27T13:47:54.801Z,32.98
2022-08-27T13:50:50.736Z,33.03
2022-08-27T13:54:03.564Z,33.09
2022-08-27T13:57:08.328Z,32.88
2022-08-27T13:59:56.807Z,32.29
2022-08-27T14:02:56.012Z,32.75
2022-08-27T14:05:49.188Z,32.52
2022-08-27T14:08:37.669Z,33.06
2022-08-27T14:11:28.216Z,33.20
2022-08-27T14:14:19.283Z,31.82
2022-08-27T14:17:20.558Z,33.03
2022-08-27T14:20:10.094Z,33.30
2022-08-27T14:22:58.628Z,32.98
2022-08-27T14:25:48.707Z,31.56
2022-08-27T14:28:38.399Z,31.59
2022-08-27T14:31:26.835Z,32.03
2022-08-27T14:34:15.599Z,32.05
2022-08-27T14:37:04.768Z,31.70
2022-08-27T14:39:53.317Z,32.27
2022-08-27T14:42:41.714Z,32.46
2022-08-27T14:45:31.406Z,32.21
2022-08-27T14:48:28.653Z,32.24
2022-08-27T14:51:24.113Z,32.67
2022-08-27T14:54:13.048Z,33.88
2022-08-27T14:57:02.357Z,33.58
2022-08-27T14:59:50.789Z,32.77
2022-08-27T15:02:47.944Z,32.06
2022-08-27T15:05:36.648Z,31.70
2022-08-27T15:08:29.203Z,32.92
2022-08-27T15:11:24.656Z,33.61
2022-08-27T15:14:17.432Z,32.25
2022-08-27T15:17:33.359Z,32.96
2022-08-27T15:20:20.169Z,33.43
2022-08-27T15:23:10.785Z,32.40
2022-08-27T15:25:59.128Z,31.75
2022-08-27T15:28:47.686Z,32.28
2022-08-27T15:31:40.178Z,33.51
2022-08-27T15:34:28.559Z,33.56
2022-08-27T15:37:18.267Z,33.83
2022-08-27T15:40:07.956Z,34.05
2022-08-27T15:42:59.338Z,34.43
2022-08-27T15:45:47.671Z,34.56
2022-08-27T15:48:35.969Z,34.73
2022-08-27T15:51:29.634Z,35.39
2022-08-27T15:54:19.351Z,35.29
2022-08-27T15:57:09.776Z,35.33
2022-08-27T15:59:58.153Z,36.71
2022-08-27T16:02:47.669Z,43.95
2022-08-27T16:05:38.210Z,52.76
2022-08-27T16:08:26.633Z,53.80
2022-08-27T16:11:17.675Z,55.90
2022-08-27T16:14:07.438Z,58.87
2022-08-27T16:16:58.300Z,58.86
2022-08-27T16:19:46.689Z,59.35
2022-08-27T16:22:35.921Z,62.34
2022-08-27T16:25:24.330Z,62.35
2022-08-27T16:28:14.080Z,63.79
2022-08-27T16:31:02.797Z,63.96
2022-08-27T16:33:51.182Z,63.74
2022-08-27T16:36:39.509Z,65.87
2022-08-27T16:39:33.042Z,65.40
2022-08-27T16:42:23.316Z,65.36
2022-08-27T16:45:14.437Z,65.58
2022-08-27T16:48:20.676Z,65.11
2022-08-27T16:51:14.402Z,66.27
2022-08-27T16:54:04.627Z,66.28
2022-08-27T16:56:52.871Z,66.97
2022-08-27T16:59:41.112Z,69.05
2022-08-27T17:02:35.042Z,67.73
2022-08-27T17:05:33.945Z,67.68
2022-08-27T17:08:26.720Z,67.97
2022-08-27T17:11:17.499Z,69.92
2022-08-27T17:14:05.818Z,69.04
2022-08-27T17:16:55.104Z,69.18
2022-08-27T17:19:45.426Z,69.42
2022-08-27T17:22:33.920Z,69.58
2022-08-27T17:25:22.166Z,69.71
2022-08-27T17:28:18.582Z,69.76
2022-08-27T17:31:08.318Z,68.87
2022-08-27T17:33:59.419Z,68.74
2022-08-27T17:36:49.592Z,69.50
2022-08-27T17:39:38.020Z,69.37
2022-08-27T17:42:26.749Z,70.31
2022-08-27T17:45:17.215Z,70.85
2022-08-27T17:48:14.049Z,71.73
2022-08-27T17:51:06.645Z,72.79
2022-08-27T17:54:01.252Z,71.89
2022-08-27T17:56:49.956Z,73.26
2022-08-27T17:59:38.584Z,73.18
2022-08-27T18:02:33.822Z,72.95
2022-08-27T18:05:24.985Z,73.01
2022-08-27T18:08:13.658Z,72.73
2022-08-27T18:11:04.528Z,70.81
2022-08-27T18:13:55.668Z,69.04
2022-08-27T18:16:43.958Z,68.52
2022-08-27T18:19:32.284Z,70.24
2022-08-27T18:22:21.314Z,73.25
2022-08-27T18:25:10.740Z,73.37
2022-08-27T18:28:03.402Z,72.04
2022-08-27T18:30:52.404Z,68.19
2022-08-27T18:33:40.901Z,68.61
2022-08-27T18:36:29.700Z,68.45
2022-08-27T18:39:17.982Z,67.32
2022-08-27T18:42:06.882Z,69.27
2022-08-27T18:44:56.707Z,72.28
2022-08-27T18:47:45.562Z,72.95
2022-08-27T18:50:33.989Z,72.18
2022-08-27T18:53:22.600Z,70.97
2022-08-27T18:56:12.300Z,72.83
2022-08-27T18:59:06.985Z,73.06
2022-08-27T19:01:57.375Z,73.35
2022-08-27T19:04:45.982Z,74.15
2022-08-27T19:07:34.384Z,74.94
2022-08-27T19:10:22.876Z,77.38
2022-08-27T19:13:11.216Z,80.42
2022-08-27T19:16:02.912Z,83.23
2022-08-27T19:18:53.096Z,86.40
2022-08-27T19:21:41.807Z,88.27
2022-08-27T19:24:30.124Z,90.70
2022-08-27T19:27:27.634Z,91.74
2022-08-27T19:30:17.297Z,91.16
2022-08-27T19:33:05.642Z,91.55
2022-08-27T19:35:55.411Z,90.96
2022-08-27T19:38:44.863Z,89.99
2022-08-27T19:41:34.531Z,88.54
2022-08-27T19:44:22.875Z,87.84
2022-08-27T19:47:12.720Z,85.51
2022-08-27T19:50:01.074Z,86.83
2022-08-27T19:52:50.682Z,90.57
2022-08-27T19:55:39.832Z,91.27
2022-08-27T19:58:28.196Z,91.29
2022-08-27T20:01:16.634Z,92.63
2022-08-27T20:04:05.974Z,93.19
2022-08-27T20:06:54.364Z,91.89
2022-08-27T20:09:44.076Z,89.75
2022-08-27T20:12:32.401Z,89.56
2022-08-27T20:15:23.484Z,88.06
2022-08-27T20:18:14.001Z,86.86
2022-08-27T20:21:05.799Z,85.14
2022-08-27T20:23:54.459Z,82.47
2022-08-27T20:26:44.151Z,81.66
2022-08-27T20:29:33.073Z,83.17
2022-08-27T20:32:22.780Z,85.98
2022-08-27T20:35:12.323Z,85.22
2022-08-27T20:38:00.696Z,82.50
2022-08-27T20:40:49.355Z,85.91
2022-08-27T20:43:39.062Z,86.55
2022-08-27T20:46:30.656Z,86.26
2022-08-27T20:49:19.010Z,85.24
2022-08-27T20:52:10.947Z,83.71
2022-08-27T20:54:59.964Z,81.84
2022-08-27T20:58:06.916Z,81.35
2022-08-27T21:00:58.034Z,90.00
2022-08-27T21:03:46.378Z,94.06
2022-08-27T21:06:34.680Z,92.35
2022-08-27T21:09:22.907Z,96.49
2022-08-27T21:12:11.206Z,97.81
2022-08-27T21:15:00.717Z,97.89
2022-08-27T21:17:50.483Z,97.60
2022-08-27T21:20:38.872Z,94.26
2022-08-27T21:23:27.924Z,92.96
2022-08-27T21:26:16.238Z,90.68
2022-08-27T21:29:05.929Z,88.19
2022-08-27T21:31:54.319Z,86.90
2022-08-27T21:34:44.307Z,88.21
2022-08-27T21:37:32.663Z,89.46
2022-08-27T21:40:21.210Z,87.83
2022-08-27T21:43:09.526Z,86.03
2022-08-27T21:45:58.899Z,87.01
2022-08-27T21:48:47.789Z,83.91
2022-08-27T21:51:48.620Z,82.91
2022-08-27T21:54:42.188Z,84.76
2022-08-27T21:57:30.482Z,88.43
2022-08-27T22:00:38.623Z,90.59
2022-08-27T22:03:27.296Z,89.92
2022-08-27T22:06:15.699Z,87.11
2022-08-27T22:09:05.444Z,85.28
2022-08-27T22:11:53.755Z,82.33
2022-08-27T22:14:42.077Z,80.95
2022-08-27T22:17:30.337Z,81.22
2022-08-27T22:20:19.017Z,78.64
2022-08-27T22:23:08.899Z,78.23
2022-08-27T22:25:58.859Z,77.74
2022-08-27T22:28:47.234Z,78.25
2022-08-27T22:31:36.186Z,80.13
2022-08-27T22:34:24.554Z,87.81
2022-08-27T22:37:13.001Z,86.58
2022-08-27T22:40:01.439Z,86.14
2022-08-27T22:42:52.211Z,86.49
2022-08-27T22:45:40.565Z,85.86
2022-08-27T22:48:28.961Z,90.40
2022-08-27T22:51:17.289Z,90.33
2022-08-27T22:54:05.875Z,88.14
2022-08-27T22:56:54.245Z,87.17
2022-08-27T22:59:43.967Z,89.36
2022-08-27T23:02:32.397Z,90.54
2022-08-27T23:05:21.014Z,89.25
2022-08-27T23:08:11.047Z,91.93
2022-08-27T23:10:59.448Z,94.35
2022-08-27T23:13:47.938Z,93.24
2022-08-27T23:16:37.791Z,95.29
2022-08-27T23:19:26.328Z,96.58
2022-08-27T23:22:16.291Z,98.44
2022-08-27T23:25:23.376Z,97.82
2022-08-27T23:28:14.838Z,98.88
2022-08-27T23:31:03.839Z,97.65
2022-08-27T23:33:54.580Z,97.72
2022-08-27T23:36:42.966Z,97.81
2022-08-27T23:39:31.284Z,96.52
2022-08-27T23:42:20.168Z,96.89
2022-08-27T23:45:11.826Z,95.08
2022-08-27T23:48:00.132Z,100.00
2022-08-27T23:50:50.814Z,100.00
2022-08-27T23:53:39.402Z,100.00
2022-08-27T23:56:29.985Z,100.00
2022-08-27T23:59:18.695Z,100.00
